TAF and METAR

Decoding for American and Canadian METARs and TAFs is not fully implemented.

Could not understand the following METAR

K0CO 061315Z AUTO 29018G24KT 10SM OVC110 07/M01 A3060 RMK AO2 PWINO
No TAF available for Empire